createdAt,value
2018-02-06T00:02:11.095Z,73.30
2018-02-06T00:04:38.621Z,73.20
2018-02-06T00:07:06.118Z,73.50
2018-02-06T00:09:34.403Z,74.20
2018-02-06T00:12:02.695Z,73.70
2018-02-06T00:14:30.200Z,73.70
2018-02-06T00:16:57.715Z,74.40
2018-02-06T00:19:25.982Z,75.00
2018-02-06T00:21:54.247Z,75.20
2018-02-06T00:24:21.744Z,75.20
2018-02-06T00:26:49.251Z,75.60
2018-02-06T00:29:16.771Z,75.70
2018-02-06T00:31:44.262Z,75.60
2018-02-06T00:34:11.788Z,75.80
2018-02-06T00:36:39.306Z,75.90
2018-02-06T00:39:07.578Z,76.00
2018-02-06T00:41:35.849Z,76.10
2018-02-06T00:44:03.334Z,76.60
2018-02-06T00:46:30.870Z,76.70
2018-02-06T00:48:58.361Z,76.80
2018-02-06T00:51:25.865Z,77.20
2018-02-06T00:53:53.393Z,77.10
2018-02-06T00:56:20.890Z,77.40
2018-02-06T00:58:48.398Z,77.40
2018-02-06T01:01:15.918Z,77.70
2018-02-06T01:03:43.438Z,77.50
2018-02-06T01:06:10.937Z,77.60
2018-02-06T01:08:39.197Z,77.30
2018-02-06T01:11:06.711Z,77.70
2018-02-06T01:13:34.230Z,77.40
2018-02-06T01:16:01.808Z,77.60
2018-02-06T01:18:29.258Z,77.40
2018-02-06T01:20:57.524Z,77.20
2018-02-06T01:23:25.792Z,77.10
2018-02-06T01:25:53.343Z,77.00
2018-02-06T01:28:20.850Z,77.10
2018-02-06T01:30:48.356Z,77.40
2018-02-06T01:33:15.865Z,77.30
2018-02-06T01:35:43.393Z,77.00
2018-02-06T01:38:11.657Z,76.90
2018-02-06T01:40:39.187Z,76.90
2018-02-06T01:43:06.692Z,76.90
2018-02-06T01:45:35.041Z,77.40
2018-02-06T01:48:03.087Z,77.30
2018-02-06T01:50:30.595Z,77.30
2018-02-06T01:52:58.122Z,77.40
2018-02-06T01:55:25.630Z,76.90
2018-02-06T01:57:53.913Z,77.30
2018-02-06T02:00:21.413Z,77.20
2018-02-06T02:02:48.943Z,77.20
2018-02-06T02:05:16.451Z,77.20
2018-02-06T02:07:43.936Z,77.30
2018-02-06T02:10:12.217Z,76.60
2018-02-06T02:12:40.492Z,77.00
2018-02-06T02:15:08.745Z,77.00
2018-02-06T02:17:37.013Z,77.00
2018-02-06T02:20:04.506Z,76.90
2018-02-06T02:22:32.773Z,77.20
2018-02-06T02:25:00.313Z,77.90
2018-02-06T02:27:27.828Z,77.10
2018-02-06T02:29:55.318Z,77.00
2018-02-06T02:32:22.851Z,77.00
2018-02-06T02:34:50.349Z,76.90
2018-02-06T02:37:17.866Z,76.70
2018-02-06T02:39:45.349Z,76.20
2018-02-06T04:40:22.459Z,75.60
2018-02-06T04:42:50.758Z,75.90
2018-02-06T04:45:18.316Z,75.80
2018-02-06T04:47:45.818Z,75.90
2018-02-06T04:50:13.315Z,75.30
2018-02-06T04:52:41.592Z,75.20
2018-02-06T04:55:09.852Z,75.50
2018-02-06T04:57:37.358Z,75.40
2018-02-06T05:00:04.867Z,75.40
2018-02-06T05:02:32.365Z,74.90
2018-02-06T05:04:59.868Z,75.30
2018-02-06T05:07:27.380Z,75.30
2018-02-06T05:09:54.873Z,75.00
2018-02-06T05:12:22.393Z,74.60
2018-02-06T05:14:49.933Z,74.90
2018-02-06T05:17:18.190Z,75.50
2018-02-06T05:19:45.692Z,75.30
2018-02-06T05:22:13.181Z,75.20
2018-02-06T05:24:40.709Z,75.60
2018-02-06T05:27:08.239Z,75.20
2018-02-06T05:29:36.529Z,75.20
2018-02-06T05:32:04.790Z,74.80
2018-02-06T05:34:32.296Z,74.70
2018-02-06T05:36:59.823Z,74.20
2018-02-06T05:39:28.136Z,74.40
2018-02-06T05:41:55.699Z,74.40
2018-02-06T05:44:23.262Z,74.10
2018-02-06T05:46:50.802Z,74.80
2018-02-06T05:49:18.446Z,74.00
2018-02-06T05:51:45.977Z,74.50
2018-02-06T05:54:14.265Z,74.60
2018-02-06T05:56:42.566Z,74.50
2018-02-06T05:59:10.064Z,74.40
2018-02-06T06:01:37.586Z,74.60
2018-02-06T06:04:05.124Z,74.10
2018-02-06T06:06:33.431Z,74.30
2018-02-06T06:09:00.958Z,74.10
2018-02-06T06:11:29.213Z,74.20
2018-02-06T06:13:56.706Z,74.10
2018-02-06T06:16:25.158Z,74.80
2018-02-06T06:18:52.678Z,74.80
2018-02-06T06:21:20.231Z,74.40
2018-02-06T06:23:47.757Z,74.30
2018-02-06T06:26:16.068Z,74.80
2018-02-06T06:28:43.607Z,74.70
2018-02-06T06:31:11.117Z,74.60
2018-02-06T06:33:38.628Z,74.70
2018-02-06T06:36:06.132Z,73.10
2018-02-06T06:38:34.429Z,73.60
2018-02-06T06:41:02.762Z,74.00
2018-02-06T06:43:30.250Z,74.70
2018-02-06T06:45:57.745Z,73.00
2018-02-06T06:48:25.260Z,73.40
2018-02-06T06:50:52.858Z,73.90
2018-02-06T06:53:21.148Z,72.90
2018-02-06T06:55:48.719Z,72.90
2018-02-06T06:58:16.229Z,73.10
2018-02-06T07:00:43.733Z,73.30
2018-02-06T07:03:11.254Z,73.80
2018-02-06T07:05:39.540Z,73.80
2018-02-06T07:08:07.849Z,73.40
2018-02-06T07:10:35.352Z,73.40
2018-02-06T07:13:02.862Z,73.40
2018-02-06T07:15:30.714Z,73.10
2018-02-06T07:17:59.038Z,72.80
2018-02-06T07:20:26.548Z,72.80
2018-02-06T07:22:54.880Z,72.50
2018-02-06T07:25:22.445Z,72.50
2018-02-06T07:27:50.005Z,72.20
2018-02-06T07:30:17.569Z,72.50
2018-02-06T07:32:45.137Z,72.70
2018-02-06T07:35:12.641Z,73.10
2018-02-06T07:37:40.168Z,72.10
2018-02-06T07:40:07.692Z,70.70
2018-02-06T07:42:35.253Z,69.80
2018-02-06T07:45:02.774Z,69.40
2018-02-06T07:47:30.313Z,70.10
2018-02-06T07:49:58.581Z,71.20
2018-02-06T07:52:26.105Z,71.00
2018-02-06T07:54:53.613Z,71.10
2018-02-06T07:57:21.923Z,71.10
2018-02-06T07:59:49.441Z,71.00
2018-02-06T08:02:17.754Z,70.70
2018-02-06T08:04:45.270Z,70.60
2018-02-06T08:07:12.782Z,70.00
2018-02-06T08:09:40.308Z,69.60
2018-02-06T08:12:07.854Z,69.00
2018-02-06T08:14:35.405Z,69.40
2018-02-06T08:17:02.910Z,69.30
2018-02-06T08:19:30.472Z,68.20
2018-02-06T08:21:58.020Z,68.50
2018-02-06T08:24:25.532Z,68.30
2018-02-06T08:26:53.057Z,68.70
2018-02-06T08:29:20.671Z,68.70
2018-02-06T08:31:49.019Z,68.20
2018-02-06T08:34:16.591Z,68.10
2018-02-06T08:36:44.169Z,66.60
2018-02-06T08:39:12.491Z,66.70
2018-02-06T08:41:40.086Z,66.70
2018-02-06T08:44:07.577Z,66.20
2018-02-06T08:46:35.141Z,66.20
2018-02-06T08:49:02.701Z,66.90
2018-02-06T08:51:30.217Z,66.30
2018-02-06T08:53:57.812Z,65.90
2018-02-06T08:56:26.202Z,64.60
2018-02-06T08:58:53.756Z,64.50
2018-02-06T09:01:21.298Z,64.20
2018-02-06T09:03:49.700Z,61.70
2018-02-06T09:06:17.283Z,61.70
2018-02-06T09:08:44.825Z,61.30
2018-02-06T09:11:12.384Z,61.30
2018-02-06T09:13:39.969Z,61.70
2018-02-06T09:16:07.500Z,63.00
2018-02-06T09:18:35.062Z,62.00
2018-02-06T09:21:02.576Z,61.60
2018-02-06T09:23:30.224Z,61.00
2018-02-06T09:25:57.764Z,63.20
2018-02-06T09:28:25.285Z,63.00
2018-02-06T09:30:53.657Z,63.20
2018-02-06T09:33:21.954Z,63.80
2018-02-06T09:35:49.520Z,63.80
2018-02-06T09:38:17.048Z,64.50
2018-02-06T09:40:51.183Z,62.60
2018-02-06T09:43:18.709Z,62.60
2018-02-06T09:45:46.237Z,63.50
2018-02-06T09:48:13.748Z,60.80
2018-02-06T09:50:42.112Z,56.20
2018-02-06T09:53:09.627Z,56.20
2018-02-06T09:55:37.186Z,53.40
2018-02-06T09:58:04.727Z,51.60
2018-02-06T10:00:32.268Z,51.50
2018-02-06T10:02:59.851Z,52.40
2018-02-06T10:05:27.385Z,52.80
2018-02-06T10:07:55.854Z,55.20
2018-02-06T10:10:23.645Z,55.10
2018-02-06T10:12:51.191Z,56.60
2018-02-06T10:15:18.737Z,57.50
2018-02-06T10:17:47.021Z,57.50
2018-02-06T10:20:15.409Z,58.00
2018-02-06T10:22:42.917Z,57.90
2018-02-06T10:25:10.541Z,57.90
2018-02-06T10:27:38.080Z,58.60
2018-02-06T10:30:06.352Z,57.90
2018-02-06T10:32:34.624Z,57.80
2018-02-06T10:35:02.177Z,57.80
2018-02-06T10:37:29.694Z,58.00
2018-02-06T10:39:57.213Z,58.40
2018-02-06T10:42:24.785Z,58.30
2018-02-06T10:44:53.080Z,57.40
2018-02-06T10:47:20.608Z,57.40
2018-02-06T10:49:48.960Z,59.20
2018-02-06T10:52:16.513Z,59.20
2018-02-06T10:54:44.043Z,59.30
2018-02-06T10:57:11.578Z,58.90
2018-02-06T10:59:39.092Z,59.70
2018-02-06T11:02:06.625Z,60.70
2018-02-06T11:04:34.183Z,59.80
2018-02-06T11:07:01.696Z,60.20
2018-02-06T11:09:29.988Z,59.80
2018-02-06T11:11:57.660Z,59.80
2018-02-06T11:14:25.223Z,59.60
2018-02-06T11:16:52.726Z,59.30
2018-02-06T11:19:20.258Z,59.80
2018-02-06T11:21:47.780Z,61.50
2018-02-06T11:24:15.387Z,61.40
2018-02-06T11:26:42.928Z,61.50
2018-02-06T11:29:10.455Z,61.00
2018-02-06T11:31:38.766Z,60.40
2018-02-06T11:34:06.297Z,60.40
2018-02-06T11:36:33.874Z,60.30
2018-02-06T11:39:01.409Z,60.80
2018-02-06T11:41:29.695Z,60.80
2018-02-06T11:43:57.223Z,60.70
2018-02-06T11:46:24.781Z,60.40
2018-02-06T11:48:52.306Z,61.30
2018-02-06T11:51:19.881Z,60.80
2018-02-06T11:53:47.454Z,60.90
2018-02-06T11:56:15.022Z,60.50
2018-02-06T11:58:42.569Z,60.60
2018-02-06T12:01:18.548Z,62.20
2018-02-06T12:03:46.078Z,61.00
2018-02-06T12:06:13.618Z,60.70
2018-02-06T12:08:41.161Z,59.80
2018-02-06T12:11:08.753Z,59.90
2018-02-06T12:13:36.271Z,59.60
2018-02-06T12:16:03.823Z,59.40
2018-02-06T12:18:32.271Z,59.50
2018-02-06T12:20:59.861Z,59.50
2018-02-06T12:23:28.155Z,59.70
2018-02-06T12:25:55.723Z,59.70
2018-02-06T12:28:23.244Z,59.60
2018-02-06T12:30:50.811Z,59.40
2018-02-06T12:33:19.103Z,58.70
2018-02-06T12:35:46.649Z,58.60
2018-02-06T12:38:14.974Z,59.60
2018-02-06T12:40:42.529Z,59.50
2018-02-06T12:43:10.055Z,59.60
2018-02-06T12:45:38.358Z,59.80
2018-02-06T12:48:05.923Z,59.80
2018-02-06T12:50:34.661Z,60.00
2018-02-06T12:53:02.978Z,60.40
2018-02-06T12:55:34.993Z,60.30
2018-02-06T12:58:02.632Z,60.30
2018-02-06T13:00:30.144Z,60.00
2018-02-06T13:02:57.697Z,61.10
2018-02-06T13:05:25.997Z,60.00
2018-02-06T13:07:53.543Z,59.90
2018-02-06T13:10:21.088Z,59.00
2018-02-06T13:12:49.369Z,58.90
2018-02-06T13:15:17.691Z,58.80
2018-02-06T13:17:45.220Z,58.70
2018-02-06T13:20:12.775Z,58.70
2018-02-06T13:22:40.341Z,58.80
2018-02-06T13:25:07.989Z,58.20
2018-02-06T13:27:35.575Z,58.80
2018-02-06T13:30:03.105Z,59.20
2018-02-06T13:32:30.666Z,59.00
2018-02-06T13:34:58.285Z,60.20
2018-02-06T13:37:25.818Z,60.90
2018-02-06T13:39:53.346Z,60.20
2018-02-06T13:42:20.872Z,60.00
2018-02-06T13:44:48.422Z,59.90
2018-02-06T13:47:16.085Z,60.20
2018-02-06T13:49:43.603Z,60.50
2018-02-06T13:52:11.139Z,60.60
2018-02-06T13:54:39.437Z,60.60
2018-02-06T13:57:06.976Z,60.60
2018-02-06T13:59:35.269Z,60.30
2018-02-06T14:02:02.834Z,60.20
2018-02-06T14:04:30.349Z,59.90
2018-02-06T14:06:57.890Z,60.00
2018-02-06T14:09:25.484Z,60.70
2018-02-06T14:11:53.772Z,60.10
2018-02-06T14:14:21.326Z,60.00
2018-02-06T14:16:49.625Z,60.10
2018-02-06T14:19:17.173Z,60.10
2018-02-06T14:21:44.709Z,60.70
2018-02-06T14:24:12.253Z,61.40
2018-02-06T14:26:39.777Z,61.70
2018-02-06T14:29:07.346Z,60.20
2018-02-06T14:31:34.876Z,60.40
2018-02-06T14:34:02.420Z,60.80
2018-02-06T14:36:30.778Z,61.10
2018-02-06T14:38:58.513Z,61.10
2018-02-06T14:41:26.061Z,60.60
2018-02-06T14:43:53.605Z,61.30
2018-02-06T14:46:21.172Z,61.00
2018-02-06T14:48:48.709Z,61.00
2018-02-06T14:51:16.285Z,60.60
2018-02-06T14:53:43.813Z,61.10
2018-02-06T14:56:12.133Z,60.80
2018-02-06T14:58:39.665Z,60.60
2018-02-06T15:01:07.252Z,60.80
2018-02-06T15:03:34.794Z,61.70
2018-02-06T15:06:02.337Z,62.20
2018-02-06T15:08:29.911Z,61.80
2018-02-06T15:10:57.444Z,62.60
2018-02-06T15:13:25.754Z,63.10
2018-02-06T15:15:53.308Z,63.00
2018-02-06T15:18:20.819Z,63.20
2018-02-06T15:20:48.576Z,63.70
2018-02-06T15:23:16.149Z,63.10
2018-02-06T15:25:43.698Z,63.30
2018-02-06T15:28:11.385Z,63.80
2018-02-06T15:30:39.677Z,62.90
2018-02-06T15:33:07.240Z,62.90
2018-02-06T15:35:34.778Z,63.30
2018-02-06T15:38:02.318Z,63.30
2018-02-06T15:40:31.023Z,63.60
2018-02-06T15:42:58.565Z,64.00
2018-02-06T15:45:26.116Z,64.70
2018-02-06T15:47:53.686Z,65.70
2018-02-06T15:50:21.229Z,65.30
2018-02-06T15:52:48.791Z,65.40
2018-02-06T15:55:16.332Z,65.20
2018-02-06T15:57:43.929Z,65.30
2018-02-06T16:00:11.481Z,65.40
2018-02-06T16:02:39.040Z,66.20
2018-02-06T16:05:06.812Z,66.20
2018-02-06T16:07:34.459Z,66.10
2018-02-06T16:10:02.145Z,66.70
2018-02-06T16:12:29.700Z,66.40
2018-02-06T16:14:57.250Z,66.80
2018-02-06T16:17:24.793Z,67.50
2018-02-06T16:19:52.332Z,68.30
2018-02-06T16:22:19.885Z,68.10
2018-02-06T16:24:47.405Z,67.80
2018-02-06T16:27:15.732Z,68.60
2018-02-06T16:29:43.265Z,68.50
2018-02-06T16:32:10.846Z,68.60
2018-02-06T16:34:38.389Z,68.60
2018-02-06T16:37:06.158Z,68.30
2018-02-06T16:39:33.684Z,68.40
2018-02-06T16:42:01.273Z,68.70
2018-02-06T16:44:28.795Z,69.60
2018-02-06T16:46:56.362Z,69.10
2018-02-06T16:49:23.920Z,69.00
2018-02-06T16:51:51.481Z,70.70
2018-02-06T16:54:19.873Z,69.90
2018-02-06T16:56:47.404Z,69.90
2018-02-06T16:59:15.105Z,69.80
2018-02-06T17:01:43.544Z,70.00
2018-02-06T17:04:11.078Z,70.20
2018-02-06T17:06:38.792Z,69.70
2018-02-06T17:09:07.053Z,70.30
2018-02-06T17:11:34.933Z,70.20
2018-02-06T17:14:03.273Z,69.70
2018-02-06T17:16:30.776Z,70.30
2018-02-06T17:18:59.386Z,70.60
2018-02-06T17:21:26.840Z,70.60
2018-02-06T17:26:33.998Z,70.80
2018-02-06T17:29:01.559Z,71.40
2018-02-06T17:31:29.095Z,71.20
2018-02-06T17:33:56.654Z,72.30
2018-02-06T17:36:24.803Z,71.60
2018-02-06T17:38:52.439Z,71.60
2018-02-06T17:41:20.103Z,71.70
2018-02-06T17:43:47.644Z,72.00
2018-02-06T17:46:15.235Z,72.40
2018-02-06T17:48:42.771Z,72.30
2018-02-06T17:51:11.070Z,72.90
2018-02-06T17:53:38.626Z,72.80
2018-02-06T17:56:06.177Z,72.70
2018-02-06T17:58:34.420Z,73.00
2018-02-06T18:01:01.890Z,73.00
2018-02-06T18:03:29.815Z,73.10
2018-02-06T18:05:58.818Z,73.20
2018-02-06T18:08:26.365Z,73.10
2018-02-06T18:10:53.912Z,72.50
2018-02-06T18:13:21.469Z,72.60
2018-02-06T18:15:49.009Z,72.60
2018-02-06T18:18:17.319Z,72.50
2018-02-06T18:20:44.829Z,72.40
2018-02-06T18:23:12.379Z,73.10
2018-02-06T18:25:39.956Z,73.60
2018-02-06T18:28:07.521Z,73.90
2018-02-06T18:30:35.075Z,73.70
2018-02-06T18:33:02.600Z,74.20
2018-02-06T18:35:30.230Z,74.00
2018-02-06T18:37:57.755Z,74.30
2018-02-06T18:40:26.056Z,73.50
2018-02-06T18:42:53.678Z,74.10
2018-02-06T18:45:21.236Z,73.30
2018-02-06T18:47:48.788Z,73.40
2018-02-06T18:50:16.317Z,73.30
2018-02-06T18:52:43.943Z,73.70
2018-02-06T18:55:11.464Z,74.00
2018-02-06T18:57:38.974Z,74.60
2018-02-06T19:00:06.527Z,74.40
2018-02-06T19:02:34.118Z,74.70
2018-02-06T19:05:01.681Z,75.00
2018-02-06T19:07:29.222Z,75.40
2018-02-06T19:09:56.830Z,75.70
2018-02-06T19:12:24.359Z,75.70
2018-02-06T19:14:52.105Z,75.90
2018-02-06T19:17:19.621Z,75.40
2018-02-06T19:19:47.133Z,74.30
2018-02-06T19:22:14.687Z,74.60
2018-02-06T19:24:42.246Z,74.40
2018-02-06T19:27:09.753Z,73.50
2018-02-06T19:29:37.350Z,73.10
2018-02-06T19:32:04.880Z,73.50
2018-02-06T19:34:32.435Z,74.10
2018-02-06T19:37:00.020Z,75.10
2018-02-06T19:39:27.525Z,74.80
2018-02-06T19:41:55.041Z,74.50
2018-02-06T19:44:23.382Z,74.40
2018-02-06T19:46:50.938Z,74.40
2018-02-06T19:49:18.475Z,74.30
2018-02-06T19:51:46.058Z,74.40
2018-02-06T19:54:13.554Z,74.20
2018-02-06T19:56:41.943Z,74.10
2018-02-06T19:59:09.453Z,74.10
2018-02-06T20:01:36.949Z,74.00
2018-02-06T20:04:05.239Z,74.50
2018-02-06T20:06:32.762Z,74.30
2018-02-06T20:09:00.312Z,74.30
2018-02-06T20:11:27.790Z,73.80
2018-02-06T20:13:56.084Z,73.70
2018-02-06T20:16:23.601Z,73.70
2018-02-06T20:18:51.127Z,74.40
2018-02-06T20:21:18.616Z,74.70
2018-02-06T20:23:46.169Z,74.40
2018-02-06T20:26:13.724Z,75.00
2018-02-06T20:28:41.246Z,73.60
2018-02-06T20:31:08.778Z,73.80
2018-02-06T20:33:37.134Z,74.50
2018-02-06T20:36:04.691Z,74.50
2018-02-06T20:38:32.236Z,74.30
2018-02-06T20:40:59.747Z,74.40
2018-02-06T20:43:27.321Z,74.20
2018-02-06T20:45:54.842Z,74.20
2018-02-06T20:48:22.377Z,73.90
2018-02-06T20:50:49.985Z,73.60
2018-02-06T20:53:18.275Z,74.10
2018-02-06T20:55:45.778Z,74.00
2018-02-06T20:58:13.313Z,74.20
2018-02-06T21:00:40.908Z,74.40
2018-02-06T21:03:08.434Z,74.70
2018-02-06T21:05:35.928Z,75.10
2018-02-06T21:08:03.492Z,75.20
2018-02-06T21:10:31.030Z,75.30
2018-02-06T21:12:58.537Z,75.40
2018-02-06T21:15:26.158Z,75.30
2018-02-06T21:17:53.677Z,75.40
2018-02-06T21:20:21.215Z,75.50
2018-02-06T21:22:48.824Z,75.70
2018-02-06T21:25:16.406Z,75.70
2018-02-06T21:27:43.928Z,75.80
2018-02-06T21:30:11.418Z,75.50
2018-02-06T21:32:38.930Z,75.60
2018-02-06T21:35:06.445Z,75.50
2018-02-06T21:37:33.981Z,75.70
2018-02-06T21:40:01.564Z,75.90
2018-02-06T21:42:29.891Z,75.80
2018-02-06T21:44:57.400Z,75.70
2018-02-06T21:47:25.745Z,75.20
2018-02-06T21:49:53.287Z,75.20
2018-02-06T21:52:20.868Z,74.70
2018-02-06T21:54:48.560Z,75.00
2018-02-06T21:57:16.069Z,74.90
2018-02-06T21:59:43.598Z,75.10
2018-02-06T22:02:11.882Z,75.00
2018-02-06T22:04:39.423Z,74.90
2018-02-06T22:07:07.728Z,75.30
2018-02-06T22:09:35.236Z,75.20
2018-02-06T22:12:02.763Z,75.70
2018-02-06T22:14:30.288Z,75.70
2018-02-06T22:16:58.591Z,75.70
2018-02-06T22:19:26.171Z,75.70
2018-02-06T22:21:53.686Z,75.90
2018-02-06T22:24:21.205Z,76.00
2018-02-06T22:26:48.729Z,76.10
2018-02-06T22:29:16.267Z,76.00
2018-02-06T22:31:44.559Z,75.40
2018-02-06T22:34:12.099Z,75.30
2018-02-06T22:36:40.384Z,75.30
2018-02-06T22:39:07.918Z,75.30
2018-02-06T22:41:36.234Z,75.40
2018-02-06T22:44:03.830Z,75.30
2018-02-06T22:46:31.271Z,75.00
2018-02-06T22:48:58.819Z,75.20
2018-02-06T22:51:26.362Z,75.30
2018-02-06T22:53:53.878Z,75.20
2018-02-06T22:56:21.420Z,75.10
2018-02-06T22:58:48.937Z,74.80
2018-02-06T23:01:16.451Z,74.30
2018-02-06T23:03:44.005Z,73.90
2018-02-06T23:06:11.552Z,73.50
2018-02-06T23:08:39.110Z,73.90
2018-02-06T23:11:06.661Z,73.40
2018-02-06T23:13:34.183Z,72.70
2018-02-06T23:16:02.469Z,73.20
2018-02-06T23:18:30.004Z,73.10
2018-02-06T23:20:58.291Z,73.00
2018-02-06T23:23:26.596Z,73.40
2018-02-06T23:25:54.137Z,73.40
2018-02-06T23:28:21.669Z,74.20
2018-02-06T23:30:49.997Z,74.80
2018-02-06T23:33:17.539Z,74.80
2018-02-06T23:35:45.098Z,75.20
2018-02-06T23:38:12.631Z,75.50
2018-02-06T23:40:40.915Z,75.30
2018-02-06T23:43:09.202Z,75.50
2018-02-06T23:45:37.487Z,76.00
2018-02-06T23:48:04.977Z,75.80
2018-02-06T23:50:32.488Z,76.10
2018-02-06T23:53:00.741Z,76.50
2018-02-06T23:55:28.244Z,76.40
2018-02-06T23:57:55.752Z,76.80
